Wrangell, AK

6:18 AM AKST on November 22, 2017 (GMT -0900)
Wrangell

Weather History for PAWG - March, 2013

Change the Weather History Date:

Wednesday, March 20, 2013

  Actual Average Record
Temperature  
Mean Temperature 30 °F -  
Max Temperature 35 °F 44 °F 57 °F (2016)
Min Temperature 26 °F 33 °F 19 °F (2001)
Degree Days  
Heating Degree Days 34    
Moisture  
Dew Point 21 °F    
Average Humidity 67    
Maximum Humidity 86    
Minimum Humidity 52    
Precipitation  
Precipitation 0.00 in - - ()
Sea Level Pressure  
Sea Level Pressure 29.58 in    
Wind  
Wind Speed 8 mph (NW)    
Max Wind Speed 14 mph    
Max Gust Speed 17 mph    
Visibility 10 miles    
Events      
Averages and records for this station are not official NWS values.
T = Trace of Precipitation, MM = Missing Value Source: NWS Daily Summary

Daily Weather History Graph

Daily Weather History Graph

Search for Another Location

Airport or City:

Trip Planner

Search our weather history database for the weather conditions in past years. The results will help you decide how hot, cold, wet, or windy it might be!

Date:

Astronomy

Mar. 20, 2013 Rise Set
Actual Time 6:50 AM AKDT 7:04 PM AKDT
Civil Twilight 6:12 AM AKDT 7:42 PM AKDT
Nautical Twilight 5:28 AM AKDT 8:27 PM AKDT
Astronomical Twilight 4:40 AM AKDT 9:14 PM AKDT
Moon 11:44 AM AKDT (3/20) 3:37 AM AKDT (3/20)
Length of Visible Light 13h 29m
Length of Day
12h 13m
First Quarter, 60% of the Moon is Illuminated
Mar 20
First Quarter
Mar 27
Full
Apr 2
Last Quarter
Apr 10
New
Apr 18
First Quarter

Hourly Weather History & Observations

Time (AKDT) Temp. Windchill Dew Point Humidity Pressure Visibility Wind Dir Wind Speed Gust Speed Precip Events Conditions
12:16 AM 28.4 °F 24.6 °F 23.0 °F 80% 29.55 in 10.0 mi SSE 3.5 mph - N/A   Clear
12:36 AM 28.4 °F 20.4 °F 24.8 °F 86% 29.54 in 10.0 mi NW 8.1 mph - N/A   Mostly Cloudy
12:56 AM 28.4 °F 23.3 °F 24.8 °F 86% 29.54 in 10.0 mi West 4.6 mph - N/A   Mostly Cloudy
1:16 AM 26.6 °F 20.0 °F 21.2 °F 80% 29.53 in 10.0 mi SW 5.8 mph - N/A   Clear
1:36 AM 28.4 °F 21.2 °F 21.2 °F 74% 29.52 in 10.0 mi WSW 6.9 mph - N/A   Clear
1:56 AM 26.6 °F 20.0 °F 21.2 °F 80% 29.52 in 10.0 mi SW 5.8 mph - N/A   Scattered Clouds
2:16 AM 26.6 °F 19.1 °F 21.2 °F 80% 29.52 in 10.0 mi SW 6.9 mph - N/A   Partly Cloudy
2:36 AM 26.6 °F 19.1 °F 21.2 °F 80% 29.51 in 10.0 mi WSW 6.9 mph - N/A   Partly Cloudy
2:56 AM 28.4 °F 24.6 °F 21.2 °F 74% 29.51 in 10.0 mi WSW 3.5 mph - N/A   Partly Cloudy
3:16 AM 28.4 °F 21.2 °F 21.2 °F 74% 29.51 in 10.0 mi NNW 6.9 mph - N/A   Clear
3:36 AM 28.4 °F 20.4 °F 21.2 °F 74% 29.50 in 10.0 mi NNW 8.1 mph - N/A   Clear
3:56 AM 28.4 °F 20.4 °F 23.0 °F 80% 29.50 in 10.0 mi North 8.1 mph - N/A   Clear
4:16 AM 28.4 °F 20.4 °F 23.0 °F 80% 29.49 in 10.0 mi North 8.1 mph - N/A   Clear
4:36 AM 28.4 °F 19.7 °F 21.2 °F 74% 29.49 in 10.0 mi NNW 9.2 mph - N/A   Clear
4:56 AM 28.4 °F 20.4 °F 21.2 °F 74% 29.49 in 10.0 mi North 8.1 mph - N/A   Clear
5:16 AM 28.4 °F 19.1 °F 23.0 °F 80% 29.48 in 10.0 mi NNW 10.4 mph - N/A   Clear
5:36 AM 28.4 °F 19.1 °F 23.0 °F 80% 29.48 in 10.0 mi NNW 10.4 mph - N/A   Clear
5:56 AM 30.2 °F 20.8 °F 21.2 °F 69% 29.48 in 10.0 mi North 11.5 mph - N/A   Scattered Clouds
6:16 AM 30.2 °F 21.9 °F 19.4 °F 64% 29.48 in 10.0 mi NNW 9.2 mph - N/A   Scattered Clouds
6:36 AM 28.4 °F 20.4 °F 21.2 °F 74% 29.48 in 10.0 mi NNW 8.1 mph - N/A   Scattered Clouds
6:56 AM 28.4 °F 20.4 °F 21.2 °F 74% 29.49 in 10.0 mi NNW 8.1 mph - N/A   Scattered Clouds
7:16 AM 28.4 °F 20.4 °F 21.2 °F 74% 29.48 in 10.0 mi NNW 8.1 mph - N/A   Scattered Clouds
7:36 AM 28.4 °F 19.7 °F 19.4 °F 69% 29.48 in 10.0 mi NNW 9.2 mph - N/A   Scattered Clouds
7:56 AM 28.4 °F 19.7 °F 21.2 °F 74% 29.48 in 10.0 mi NNW 9.2 mph - N/A   Scattered Clouds
8:16 AM 28.4 °F 20.4 °F 19.4 °F 69% 29.48 in 10.0 mi NNW 8.1 mph - N/A   Scattered Clouds
8:36 AM 30.2 °F 21.3 °F 19.4 °F 64% 29.48 in 10.0 mi NNW 10.4 mph - N/A   Scattered Clouds
8:56 AM 30.2 °F 22.6 °F 19.4 °F 64% 29.48 in 10.0 mi NNW 8.1 mph - N/A   Scattered Clouds
9:16 AM 30.2 °F 22.6 °F 19.4 °F 64% 29.49 in 10.0 mi NNW 8.1 mph - N/A   Scattered Clouds
9:36 AM 30.2 °F 21.3 °F 19.4 °F 64% 29.49 in 10.0 mi NNW 10.4 mph 16.1 mph N/A   Scattered Clouds
9:56 AM 30.2 °F 20.8 °F 19.4 °F 64% 29.49 in 10.0 mi NNW 11.5 mph - N/A   Scattered Clouds
10:16 AM 30.2 °F 20.8 °F 19.4 °F 64% 29.49 in 10.0 mi NNW 11.5 mph 17.3 mph N/A   Scattered Clouds
10:36 AM 30.2 °F 20.8 °F 19.4 °F 64% 29.50 in 10.0 mi NNW 11.5 mph - N/A   Scattered Clouds
10:56 AM 30.2 °F 20.8 °F 19.4 °F 64% 29.50 in 10.0 mi NNW 11.5 mph 17.3 mph N/A   Scattered Clouds
11:16 AM 32.0 °F 22.5 °F 19.4 °F 60% 29.50 in 10.0 mi NNW 12.7 mph - N/A   Scattered Clouds
11:36 AM 32.0 °F 22.5 °F 21.2 °F 64% 29.51 in 10.0 mi NNW 12.7 mph - N/A   Scattered Clouds
11:56 AM 32.0 °F 23.6 °F 21.2 °F 64% 29.51 in 10.0 mi NNW 10.4 mph 17.3 mph N/A   Scattered Clouds
12:16 PM 33.8 °F 25.3 °F 21.2 °F 60% 29.52 in 10.0 mi NNW 11.5 mph 17.3 mph N/A   Scattered Clouds
12:36 PM 33.8 °F 24.3 °F 19.4 °F 56% 29.52 in 10.0 mi NNW 13.8 mph 17.3 mph N/A   Scattered Clouds
12:56 PM 33.8 °F 25.3 °F 19.4 °F 56% 29.53 in 10.0 mi NNW 11.5 mph - N/A   Scattered Clouds
1:16 PM 33.8 °F 24.8 °F 21.2 °F 60% 29.54 in 10.0 mi NW 12.7 mph - N/A   Scattered Clouds
1:36 PM 33.8 °F 24.8 °F 19.4 °F 56% 29.55 in 10.0 mi NW 12.7 mph - N/A   Scattered Clouds
1:56 PM 33.8 °F 26.4 °F 21.2 °F 60% 29.56 in 10.0 mi NNW 9.2 mph - N/A   Scattered Clouds
2:16 PM 35.6 °F 27.5 °F 19.4 °F 52% 29.56 in 10.0 mi NW 11.5 mph - N/A   Scattered Clouds
2:36 PM 33.8 °F 25.8 °F 19.4 °F 56% 29.57 in 10.0 mi NNW 10.4 mph - N/A   Scattered Clouds
2:56 PM 35.6 °F 28.6 °F 21.2 °F 56% 29.58 in 10.0 mi NW 9.2 mph - N/A   Scattered Clouds
3:16 PM 35.6 °F 29.2 °F 21.2 °F 56% 29.58 in 10.0 mi NW 8.1 mph - N/A   Scattered Clouds
3:36 PM 35.6 °F 29.2 °F 21.2 °F 56% 29.59 in 10.0 mi NW 8.1 mph - N/A   Scattered Clouds
3:56 PM 33.8 °F 25.8 °F 19.4 °F 56% 29.60 in 10.0 mi NW 10.4 mph - N/A   Scattered Clouds
4:16 PM 33.8 °F 26.4 °F 19.4 °F 56% 29.61 in 10.0 mi NW 9.2 mph - N/A   Mostly Cloudy
4:36 PM 33.8 °F 27.0 °F 19.4 °F 56% 29.62 in 10.0 mi NW 8.1 mph - N/A   Mostly Cloudy
4:56 PM 33.8 °F 27.0 °F 19.4 °F 56% 29.63 in 10.0 mi NW 8.1 mph - N/A   Mostly Cloudy
5:16 PM 33.8 °F 27.7 °F 19.4 °F 56% 29.64 in 10.0 mi NNW 6.9 mph - N/A   Mostly Cloudy
5:36 PM 33.8 °F 28.6 °F 19.4 °F 56% 29.64 in 10.0 mi North 5.8 mph - N/A   Mostly Cloudy
5:56 PM 33.8 °F 29.6 °F 21.2 °F 60% 29.65 in 10.0 mi NW 4.6 mph - N/A   Mostly Cloudy
6:16 PM 33.8 °F 29.6 °F 19.4 °F 56% 29.66 in 10.0 mi WNW 4.6 mph - N/A   Mostly Cloudy
6:36 PM 33.8 °F 28.6 °F 21.2 °F 60% 29.66 in 10.0 mi NW 5.8 mph - N/A   Mostly Cloudy
6:56 PM 32.0 °F 28.7 °F 19.4 °F 60% 29.67 in 10.0 mi WSW 3.5 mph - N/A   Mostly Cloudy
7:16 PM 32.0 °F 28.7 °F 19.4 °F 60% 29.68 in 10.0 mi West 3.5 mph - N/A   Mostly Cloudy
7:36 PM 30.2 °F 26.7 °F 19.4 °F 64% 29.69 in 10.0 mi West 3.5 mph - N/A   Mostly Cloudy
7:56 PM 32.0 °F 27.5 °F 21.2 °F 64% 29.70 in 10.0 mi NW 4.6 mph - N/A   Mostly Cloudy
8:16 PM 32.0 °F 28.7 °F 19.4 °F 60% 29.70 in 10.0 mi North 3.5 mph - N/A   Mostly Cloudy
8:36 PM 30.2 °F 24.3 °F 19.4 °F 64% 29.71 in 10.0 mi West 5.8 mph - N/A   Mostly Cloudy
8:56 PM 30.2 °F 25.4 °F 21.2 °F 69% 29.72 in 10.0 mi SE 4.6 mph - N/A   Mostly Cloudy
9:16 PM 28.4 °F 22.2 °F 21.2 °F 74% 29.73 in 10.0 mi SE 5.8 mph - N/A   Mostly Cloudy
9:36 PM 30.2 °F 23.4 °F 21.2 °F 69% 29.74 in 10.0 mi ESE 6.9 mph - N/A   Mostly Cloudy
9:56 PM 30.2 °F 23.4 °F 19.4 °F 64% 29.75 in 10.0 mi SE 6.9 mph - N/A   Mostly Cloudy
10:16 PM 28.4 °F 21.2 °F 19.4 °F 69% 29.75 in 10.0 mi SSE 6.9 mph - N/A   Mostly Cloudy
10:36 PM 28.4 °F 21.2 °F 19.4 °F 69% 29.76 in 10.0 mi SSE 6.9 mph - N/A   Mostly Cloudy
10:56 PM 28.4 °F 22.2 °F 19.4 °F 69% 29.77 in 10.0 mi SSE 5.8 mph - N/A   Mostly Cloudy
11:16 PM 28.4 °F 23.3 °F 19.4 °F 69% 29.77 in 10.0 mi SSE 4.6 mph - N/A   Clear
11:36 PM 28.4 °F 21.2 °F 19.4 °F 69% 29.78 in 10.0 mi SE 6.9 mph - N/A   Clear
11:56 PM 28.4 °F 19.7 °F 17.6 °F 64% 29.78 in 10.0 mi ESE 9.2 mph - N/A   Partly Cloudy